PAJC

Details ICAO PAJC
Name Chignik
Region USA (Alaska)
Timezone America/Anchorage (UTC-8.0)
Plans Departing 6
Arriving 6
Stats Elevation 50 ft / 15 m (AMSL)
Location 56.311444° -158.373980°
Runways 1
Magnetic Variation 12.467° E
Sunrise 2018-05-21 14:09:18 UTC / 2018-05-21 06:09:18 Local
Sunset 2018-05-22 06:53:48 UTC / 2018-05-21 22:53:48 Local
Advertisement - Login to hide

Runways

ID Width Length Bearing (true) Bearing (mag) Surface Threshold Offset Overrun Length
02 60 ft / 18 m 2,602 ft / 793 m 39.00° 26.53° Gravel 0 ft / 0 m 0 ft / 0 m
20 60 ft / 18 m 2,602 ft / 793 m 219.00° 206.53° Gravel 0 ft / 0 m 0 ft / 0 m

Map

Weather


0- 5 10 15 20 25 30 35+ Temperature / ° C

Clouds and Precipitation
Forecast for 2018-05-22 06:00 UTC. Updated 36 minutes ago

Ground ~20,000 ft ~40,000 ft Winds

METAR

PAJC 220457Z AUTO 24021G25KT 10SM FEW019 07/03 A2954 RMK AO2 PK WND 25030/0435 SLP002 T00670028

TAF

Not found
Warning: Do not use this data for real-world aviation or navigation. No guarantee of current accuracy is given.